createdAt,value
2023-04-08T00:00:31.685Z,99.90
2023-04-08T00:01:34.732Z,99.90
2023-04-08T00:02:37.086Z,99.90
2023-04-08T00:03:40.934Z,99.90
2023-04-08T00:04:43.572Z,99.90
2023-04-08T00:05:46.781Z,99.90
2023-04-08T00:06:48.964Z,99.90
2023-04-08T00:07:52.193Z,99.90
2023-04-08T00:08:54.272Z,99.90
2023-04-08T00:09:57.746Z,99.90
2023-04-08T00:11:00.716Z,99.90
2023-04-08T00:12:05.521Z,99.90
2023-04-08T00:13:07.753Z,99.90
2023-04-08T00:14:11.022Z,99.90
2023-04-08T00:15:13.094Z,99.90
2023-04-08T00:16:16.228Z,99.90
2023-04-08T00:17:18.336Z,99.90
2023-04-08T00:18:21.326Z,99.90
2023-04-08T00:19:23.373Z,99.90
2023-04-08T00:20:26.414Z,99.90
2023-04-08T00:21:28.788Z,99.90
2023-04-08T00:22:31.883Z,99.90
2023-04-08T00:23:33.964Z,99.90
2023-04-08T00:24:37.306Z,99.90
2023-04-08T00:25:39.479Z,99.90
2023-04-08T00:26:42.693Z,99.90
2023-04-08T00:27:46.506Z,99.90
2023-04-08T00:28:49.842Z,99.90
2023-04-08T00:29:52.366Z,99.90
2023-04-08T00:30:55.634Z,99.90
2023-04-08T00:31:58.108Z,99.90
2023-04-08T00:33:01.817Z,99.90
2023-04-08T00:34:03.979Z,99.90
2023-04-08T00:35:07.828Z,99.90
2023-04-08T00:36:09.924Z,99.90
2023-04-08T00:37:13.067Z,99.90
2023-04-08T00:38:15.099Z,99.90
2023-04-08T00:39:18.452Z,99.90
2023-04-08T00:40:20.733Z,99.90
2023-04-08T00:41:23.753Z,99.90
2023-04-08T00:42:25.866Z,99.90
2023-04-08T00:43:30.358Z,99.90
2023-04-08T00:44:32.470Z,99.90
2023-04-08T00:45:35.592Z,99.90
2023-04-08T00:46:40.562Z,99.90
2023-04-08T00:47:44.045Z,99.90
2023-04-08T00:48:46.403Z,99.90
2023-04-08T00:49:49.515Z,99.90
2023-04-08T00:50:51.755Z,99.90
2023-04-08T00:51:55.303Z,99.90
2023-04-08T00:52:57.541Z,99.90
2023-04-08T00:54:01.526Z,99.90
2023-04-08T00:55:04.592Z,99.90
2023-04-08T00:56:07.806Z,99.90
2023-04-08T00:57:10.245Z,99.90
2023-04-08T00:58:14.844Z,99.90
2023-04-08T00:59:19.141Z,99.90
2023-04-08T01:00:22.205Z,99.90
2023-04-08T01:01:32.410Z,99.90
2023-04-08T01:02:41.583Z,99.90
2023-04-08T01:03:51.699Z,99.90
2023-04-08T01:05:03.718Z,99.90
2023-04-08T01:06:29.454Z,99.90
2023-04-08T01:07:33.598Z,99.90
2023-04-08T01:08:41.006Z,99.90
2023-04-08T01:09:48.226Z,99.90
2023-04-08T01:10:54.961Z,99.90
2023-04-08T01:11:59.509Z,99.90
2023-04-08T01:13:08.321Z,99.90
2023-04-08T01:14:15.763Z,99.90
2023-04-08T01:15:20.773Z,99.90
2023-04-08T01:16:26.125Z,99.90
2023-04-08T01:17:31.474Z,99.90
2023-04-08T01:18:39.872Z,99.90
2023-04-08T01:19:44.920Z,99.90
2023-04-08T01:20:48.162Z,99.90
2023-04-08T01:21:51.875Z,99.90
2023-04-08T01:23:07.790Z,99.90
2023-04-08T01:24:29.709Z,99.90
2023-04-08T01:25:33.733Z,99.90
2023-04-08T01:26:38.980Z,99.90
2023-04-08T01:27:42.738Z,99.90
2023-04-08T01:28:46.111Z,99.90
2023-04-08T01:29:49.283Z,99.90
2023-04-08T01:30:53.307Z,99.90
2023-04-08T01:31:56.571Z,99.90
2023-04-08T01:33:02.936Z,99.90
2023-04-08T01:34:06.533Z,99.90
2023-04-08T01:35:11.479Z,99.90
2023-04-08T01:36:14.401Z,99.90
2023-04-08T01:37:18.265Z,99.90
2023-04-08T01:38:22.880Z,99.90
2023-04-08T01:39:27.596Z,99.90
2023-04-08T01:40:30.289Z,99.90
2023-04-08T01:41:36.960Z,99.90
2023-04-08T01:42:41.385Z,99.90
2023-04-08T01:43:45.429Z,99.90
2023-04-08T01:44:48.215Z,99.90
2023-04-08T01:45:54.499Z,99.90
2023-04-08T01:46:57.354Z,99.90
2023-04-08T01:48:02.123Z,99.90
2023-04-08T01:49:06.274Z,99.90
2023-04-08T01:50:13.420Z,99.90
2023-04-08T01:51:16.129Z,99.90
2023-04-08T01:52:20.969Z,99.90
2023-04-08T01:53:23.279Z,99.90
2023-04-08T01:54:26.285Z,99.90
2023-04-08T01:55:29.329Z,99.90
2023-04-08T01:56:37.397Z,99.90
2023-04-08T01:57:44.608Z,99.90
2023-04-08T01:58:53.078Z,99.90
2023-04-08T02:00:00.645Z,99.90
2023-04-08T02:01:06.188Z,99.90
2023-04-08T02:02:10.660Z,99.90
2023-04-08T02:03:15.970Z,99.90
2023-04-08T02:04:21.584Z,99.90
2023-04-08T02:05:24.773Z,99.90
2023-04-08T02:06:29.228Z,99.90
2023-04-08T02:07:32.223Z,99.90
2023-04-08T02:08:35.418Z,99.90
2023-04-08T02:09:38.625Z,99.90
2023-04-08T02:10:41.147Z,99.90
2023-04-08T02:11:44.302Z,99.90
2023-04-08T02:12:50.236Z,99.90
2023-04-08T02:13:54.353Z,99.90
2023-04-08T02:14:57.751Z,99.90
2023-04-08T02:16:07.826Z,99.90
2023-04-08T02:17:13.651Z,99.90
2023-04-08T02:18:23.509Z,99.90
2023-04-08T02:19:30.429Z,99.90
2023-04-08T02:20:39.920Z,99.90
2023-04-08T02:21:47.339Z,99.90
2023-04-08T02:23:00.989Z,99.90
2023-04-08T02:24:07.434Z,99.90
2023-04-08T02:25:16.045Z,99.90
2023-04-08T02:26:19.309Z,99.90
2023-04-08T02:27:23.201Z,99.90
2023-04-08T02:28:28.986Z,99.90
2023-04-08T02:29:34.822Z,99.90
2023-04-08T02:30:38.008Z,99.90
2023-04-08T02:31:43.077Z,99.90
2023-04-08T02:32:46.741Z,99.90
2023-04-08T02:33:51.692Z,99.90
2023-04-08T02:34:55.162Z,99.90
2023-04-08T02:36:00.945Z,99.90
2023-04-08T02:37:03.431Z,99.90
2023-04-08T02:38:06.524Z,99.90
2023-04-08T02:39:08.676Z,99.90
2023-04-08T02:40:27.583Z,99.90
2023-04-08T02:41:29.884Z,99.90
2023-04-08T02:42:32.904Z,99.90
2023-04-08T02:43:36.833Z,99.90
2023-04-08T02:44:42.516Z,99.90
2023-04-08T02:45:45.580Z,99.90
2023-04-08T02:46:48.825Z,99.90
2023-04-08T02:47:50.909Z,99.90
2023-04-08T02:48:54.687Z,99.90
2023-04-08T02:49:57.089Z,99.90
2023-04-08T02:51:00.178Z,99.90
2023-04-08T02:52:02.300Z,99.90
2023-04-08T02:53:05.456Z,99.90
2023-04-08T02:54:08.933Z,99.90
2023-04-08T02:55:12.394Z,99.90
2023-04-08T02:56:14.664Z,99.90
2023-04-08T02:57:18.013Z,99.90
2023-04-08T02:58:20.448Z,99.90
2023-04-08T02:59:25.035Z,99.90
2023-04-08T03:00:27.283Z,99.90
2023-04-08T03:01:30.622Z,99.90
2023-04-08T03:02:33.102Z,99.90
2023-04-08T03:03:36.711Z,99.90
2023-04-08T03:04:38.867Z,99.90
2023-04-08T03:05:41.893Z,99.90
2023-04-08T03:06:44.304Z,99.90
2023-04-08T03:07:47.419Z,99.90
2023-04-08T03:08:49.640Z,99.90
2023-04-08T03:09:52.850Z,99.90
2023-04-08T03:10:55.067Z,99.90
2023-04-08T03:11:58.653Z,99.90
2023-04-08T03:13:01.025Z,99.90
2023-04-08T03:14:04.026Z,99.90
2023-04-08T03:15:08.424Z,99.90
2023-04-08T03:16:11.598Z,99.90
2023-04-08T03:17:13.678Z,99.90
2023-04-08T03:18:17.767Z,99.90
2023-04-08T03:19:19.938Z,99.90
2023-04-08T03:20:22.909Z,99.90
2023-04-08T03:21:25.067Z,99.90
2023-04-08T03:22:28.202Z,99.90
2023-04-08T03:23:30.682Z,99.90
2023-04-08T03:24:33.762Z,99.90
2023-04-08T03:25:36.163Z,99.90
2023-04-08T03:26:39.240Z,99.90
2023-04-08T03:27:41.354Z,99.90
2023-04-08T03:28:44.444Z,99.90
2023-04-08T03:29:46.797Z,99.90
2023-04-08T03:30:51.759Z,99.90
2023-04-08T03:31:53.831Z,99.90
2023-04-08T03:32:56.979Z,99.90
2023-04-08T03:33:59.699Z,99.90
2023-04-08T03:35:02.897Z,99.90
2023-04-08T03:36:07.700Z,99.90
2023-04-08T03:37:09.875Z,99.90
2023-04-08T03:38:13.049Z,99.90
2023-04-08T03:39:15.090Z,99.90
2023-04-08T03:40:18.387Z,99.90
2023-04-08T03:41:21.394Z,99.90
2023-04-08T03:42:24.870Z,99.90
2023-04-08T03:43:27.642Z,99.90
2023-04-08T03:44:30.998Z,99.90
2023-04-08T03:45:33.022Z,99.90
2023-04-08T03:46:37.392Z,99.90
2023-04-08T03:47:39.617Z,99.90
2023-04-08T03:48:42.814Z,99.90
2023-04-08T03:49:45.281Z,99.90
2023-04-08T03:50:48.821Z,99.90
2023-04-08T03:51:51.289Z,99.90
2023-04-08T03:52:54.477Z,99.90
2023-04-08T03:53:56.514Z,99.90
2023-04-08T03:54:59.702Z,99.90
2023-04-08T03:56:03.513Z,99.90
2023-04-08T03:57:06.539Z,99.90
2023-04-08T03:58:09.732Z,99.90
2023-04-08T03:59:12.870Z,99.90
2023-04-08T04:00:15.654Z,99.90
2023-04-08T04:01:21.449Z,99.90
2023-04-08T04:02:25.580Z,99.90
2023-04-08T04:03:28.854Z,99.90
2023-04-08T04:04:31.491Z,99.90
2023-04-08T04:05:34.538Z,99.90
2023-04-08T04:06:36.652Z,99.90
2023-04-08T04:07:40.152Z,99.90
2023-04-08T04:08:42.298Z,99.90
2023-04-08T04:09:45.425Z,99.90
2023-04-08T04:10:47.460Z,99.90
2023-04-08T04:11:50.550Z,99.90
2023-04-08T04:12:52.671Z,99.90
2023-04-08T04:13:55.844Z,99.90
2023-04-08T04:14:57.884Z,99.90
2023-04-08T04:16:00.911Z,99.90
2023-04-08T04:17:02.961Z,99.90
2023-04-08T04:18:07.616Z,99.90
2023-04-08T04:19:09.726Z,99.90
2023-04-08T04:20:13.524Z,99.90
2023-04-08T04:21:15.822Z,99.90
2023-04-08T04:22:19.346Z,99.90
2023-04-08T04:23:22.716Z,99.90
2023-04-08T04:24:25.798Z,99.90
2023-04-08T04:25:27.918Z,99.90
2023-04-08T04:26:31.342Z,99.90
2023-04-08T04:27:33.404Z,99.90
2023-04-08T04:28:36.467Z,99.90
2023-04-08T04:29:38.462Z,99.90
2023-04-08T04:30:42.775Z,99.90
2023-04-08T04:31:44.818Z,99.90
2023-04-08T04:32:47.865Z,99.90
2023-04-08T04:33:51.496Z,99.90
2023-04-08T04:34:54.618Z,99.90
2023-04-08T04:35:56.786Z,99.90
2023-04-08T04:37:00.131Z,99.90
2023-04-08T04:38:02.149Z,99.90
2023-04-08T04:39:05.161Z,99.90
2023-04-08T04:40:08.354Z,99.90
2023-04-08T04:41:11.773Z,99.90
2023-04-08T04:42:13.883Z,99.90
2023-04-08T04:43:17.385Z,99.90
2023-04-08T04:44:19.691Z,99.90
2023-04-08T04:45:22.737Z,99.90
2023-04-08T04:46:25.304Z,99.90
2023-04-08T04:47:28.448Z,99.90
2023-04-08T04:48:30.680Z,99.90
2023-04-08T04:49:35.051Z,99.90
2023-04-08T04:50:37.146Z,99.90
2023-04-08T04:51:40.143Z,99.90
2023-04-08T04:52:42.150Z,99.90
2023-04-08T04:53:45.409Z,99.90
2023-04-08T04:54:47.610Z,99.90
2023-04-08T04:55:51.527Z,99.90
2023-04-08T04:56:53.554Z,99.90
2023-04-08T04:57:56.606Z,99.90
2023-04-08T04:58:58.662Z,99.90
2023-04-08T05:00:03.301Z,99.90
2023-04-08T05:01:07.385Z,99.90
2023-04-08T05:02:10.770Z,99.90
2023-04-08T05:03:13.040Z,99.90
2023-04-08T05:04:16.139Z,99.90
2023-04-08T05:05:19.898Z,99.90
2023-04-08T05:06:24.634Z,99.90
2023-04-08T05:07:27.039Z,99.90
2023-04-08T05:08:30.533Z,99.90
2023-04-08T05:09:32.590Z,99.90
2023-04-08T05:10:35.609Z,99.90
2023-04-08T05:11:38.107Z,99.90
2023-04-08T05:12:41.469Z,99.90
2023-04-08T05:13:43.521Z,99.90
2023-04-08T05:14:46.496Z,99.90
2023-04-08T05:15:49.919Z,99.90
2023-04-08T05:16:52.093Z,99.90
2023-04-08T05:17:55.409Z,99.90
2023-04-08T05:18:57.526Z,99.90
2023-04-08T05:20:00.817Z,99.90
2023-04-08T05:21:04.647Z,99.90
2023-04-08T05:22:07.662Z,99.90
2023-04-08T05:23:09.965Z,99.90
2023-04-08T05:24:12.975Z,99.90
2023-04-08T05:25:15.000Z,99.90
2023-04-08T05:26:19.899Z,99.90
2023-04-08T05:27:22.483Z,99.90
2023-04-08T05:28:25.515Z,99.90
2023-04-08T05:29:27.693Z,99.90
2023-04-08T05:30:31.469Z,99.90
2023-04-08T05:31:33.809Z,99.90
2023-04-08T05:32:37.067Z,99.90
2023-04-08T05:33:39.245Z,99.90
2023-04-08T05:34:42.283Z,99.90
2023-04-08T05:35:44.587Z,99.90
2023-04-08T05:36:51.766Z,99.90
2023-04-08T05:37:53.841Z,99.90
2023-04-08T05:38:56.915Z,99.90
2023-04-08T05:39:58.956Z,99.90
2023-04-08T05:41:01.953Z,99.90
2023-04-08T05:42:04.462Z,99.90
2023-04-08T05:43:07.530Z,99.90
2023-04-08T05:44:09.566Z,99.90
2023-04-08T05:45:12.843Z,99.90
2023-04-08T05:46:16.126Z,99.90
2023-04-08T05:47:18.416Z,99.90
2023-04-08T05:48:21.426Z,99.90
2023-04-08T05:49:23.651Z,99.90
2023-04-08T05:50:27.862Z,99.90
2023-04-08T05:51:29.988Z,99.90
2023-04-08T05:52:34.423Z,99.90
2023-04-08T05:53:36.991Z,99.90
2023-04-08T05:54:43.527Z,99.90
2023-04-08T05:55:46.615Z,99.90
2023-04-08T05:56:48.934Z,99.90
2023-04-08T05:57:51.970Z,99.90
2023-04-08T05:58:54.018Z,99.90
2023-04-08T05:59:57.111Z,99.90
2023-04-08T06:00:59.324Z,99.90
2023-04-08T06:02:02.778Z,99.90
2023-04-08T06:03:05.235Z,99.90
2023-04-08T06:04:09.331Z,99.90
2023-04-08T06:05:11.854Z,99.90
2023-04-08T06:06:15.003Z,99.90
2023-04-08T06:07:17.009Z,99.90
2023-04-08T06:08:21.536Z,99.90
2023-04-08T06:09:23.571Z,99.90
2023-04-08T06:10:26.603Z,99.90
2023-04-08T06:11:28.698Z,99.90
2023-04-08T06:12:32.061Z,99.90
2023-04-08T06:13:34.185Z,99.90
2023-04-08T06:14:37.260Z,99.90
2023-04-08T06:15:39.322Z,99.90
2023-04-08T06:16:42.393Z,99.90
2023-04-08T06:17:44.444Z,99.90
2023-04-08T06:18:48.158Z,99.90
2023-04-08T06:19:50.917Z,99.90
2023-04-08T06:20:53.917Z,99.90
2023-04-08T06:21:59.350Z,99.90
2023-04-08T06:23:02.397Z,99.90
2023-04-08T06:24:06.269Z,99.90
2023-04-08T06:25:10.065Z,99.90
2023-04-08T06:26:13.250Z,99.90
2023-04-08T06:27:16.528Z,99.90
2023-04-08T06:28:18.708Z,99.90
2023-04-08T06:29:22.043Z,99.90
2023-04-08T06:30:24.239Z,99.90
2023-04-08T06:31:27.348Z,99.90
2023-04-08T06:32:29.420Z,99.90
2023-04-08T06:33:32.473Z,99.90
2023-04-08T06:34:34.494Z,99.90
2023-04-08T06:35:37.826Z,99.90
2023-04-08T06:36:39.942Z,99.90
2023-04-08T06:37:43.220Z,99.90
2023-04-08T06:38:45.560Z,99.90
2023-04-08T06:39:50.043Z,99.90
2023-04-08T06:40:52.085Z,99.90
2023-04-08T06:41:55.626Z,99.90
2023-04-08T06:43:13.525Z,99.90
2023-04-08T06:44:17.138Z,99.90
2023-04-08T06:45:19.206Z,99.90
2023-04-08T06:46:22.393Z,99.90
2023-04-08T06:47:24.633Z,99.90
2023-04-08T06:48:30.342Z,99.90
2023-04-08T06:49:32.897Z,99.90
2023-04-08T06:50:35.971Z,99.90
2023-04-08T06:51:38.254Z,99.90
2023-04-08T06:52:41.432Z,99.90
2023-04-08T06:53:43.462Z,99.90
2023-04-08T06:54:46.474Z,99.90
2023-04-08T06:55:50.065Z,99.90
2023-04-08T06:56:53.260Z,99.90
2023-04-08T06:57:55.336Z,99.90
2023-04-08T06:58:58.702Z,99.90
2023-04-08T07:00:00.943Z,99.90
2023-04-08T07:01:04.031Z,99.90
2023-04-08T07:02:06.762Z,99.90
2023-04-08T07:03:11.277Z,99.90
2023-04-08T07:04:13.409Z,99.90
2023-04-08T07:05:16.630Z,99.90
2023-04-08T07:06:18.721Z,99.90
2023-04-08T07:07:24.144Z,99.90
2023-04-08T07:08:27.641Z,99.90
2023-04-08T07:09:29.840Z,99.90
2023-04-08T07:10:33.317Z,99.90
2023-04-08T07:11:37.011Z,99.90
2023-04-08T07:12:40.080Z,99.90
2023-04-08T07:13:43.298Z,99.90
2023-04-08T07:14:46.290Z,99.90
2023-04-08T07:15:49.436Z,99.90
2023-04-08T07:16:51.710Z,99.90
2023-04-08T07:17:56.770Z,99.90
2023-04-08T07:18:59.121Z,99.90
2023-04-08T07:20:02.211Z,99.90
2023-04-08T07:21:04.564Z,99.90
2023-04-08T07:22:07.523Z,99.90
2023-04-08T07:23:09.733Z,99.90
2023-04-08T07:24:12.807Z,99.90
2023-04-08T07:25:15.074Z,99.90
2023-04-08T07:26:18.586Z,99.90
2023-04-08T07:27:22.081Z,99.90
2023-04-08T07:28:25.085Z,99.90
2023-04-08T07:29:28.027Z,99.90
2023-04-08T07:30:31.079Z,99.90
2023-04-08T07:31:34.160Z,99.90
2023-04-08T07:32:36.819Z,99.90
2023-04-08T07:33:40.228Z,99.90
2023-04-08T07:34:43.233Z,99.90
2023-04-08T07:35:45.701Z,99.90
2023-04-08T07:36:48.943Z,99.90
2023-04-08T07:37:51.282Z,99.90
2023-04-08T07:38:54.295Z,99.90
2023-04-08T07:39:56.334Z,99.90
2023-04-08T07:40:59.380Z,99.90
2023-04-08T07:42:02.702Z,99.90
2023-04-08T07:43:07.220Z,99.90
2023-04-08T07:44:09.351Z,99.70
2023-04-08T07:45:12.893Z,97.20
2023-04-08T07:46:16.080Z,95.80
2023-04-08T07:47:19.332Z,95.10
2023-04-08T07:48:22.491Z,94.60
2023-04-08T07:49:25.656Z,93.40
2023-04-08T07:50:28.738Z,92.90
2023-04-08T07:51:31.102Z,91.70
2023-04-08T07:52:34.442Z,91.70
2023-04-08T07:53:36.637Z,91.50
2023-04-08T07:54:39.625Z,91.30
2023-04-08T07:55:42.486Z,91.00
2023-04-08T07:56:46.031Z,88.80
2023-04-08T07:57:48.222Z,86.80
2023-04-08T07:58:53.921Z,84.90
2023-04-08T07:59:56.466Z,83.30
2023-04-08T08:00:59.775Z,81.00
2023-04-08T08:02:01.887Z,79.90
2023-04-08T08:03:05.117Z,78.90
2023-04-08T08:04:07.482Z,77.00
2023-04-08T08:05:10.909Z,75.30
2023-04-08T08:06:13.124Z,72.80
2023-04-08T08:07:16.301Z,70.70
2023-04-08T08:08:18.399Z,69.80
2023-04-08T08:09:21.711Z,69.00
2023-04-08T08:10:24.100Z,68.90
2023-04-08T08:11:28.033Z,68.10
2023-04-08T08:12:30.343Z,66.40
2023-04-08T08:13:34.218Z,65.60
2023-04-08T08:14:39.294Z,65.30
2023-04-08T08:15:41.545Z,65.40
2023-04-08T08:16:44.769Z,65.10
2023-04-08T08:17:47.860Z,64.20
2023-04-08T08:18:49.991Z,64.70
2023-04-08T08:19:53.038Z,64.80
2023-04-08T08:20:55.230Z,63.10
2023-04-08T08:21:58.293Z,63.00
2023-04-08T08:23:00.565Z,63.00
2023-04-08T08:24:03.711Z,63.90
2023-04-08T08:25:07.692Z,64.40
2023-04-08T08:26:11.707Z,66.50
2023-04-08T08:27:14.748Z,66.70
2023-04-08T08:28:16.977Z,67.20
2023-04-08T08:29:19.998Z,68.20
2023-04-08T08:30:23.660Z,68.90
2023-04-08T08:31:26.723Z,69.50
2023-04-08T08:32:28.838Z,69.30
2023-04-08T08:33:31.866Z,69.40
2023-04-08T08:34:33.936Z,69.30
2023-04-08T08:35:37.668Z,68.60
2023-04-08T08:36:39.826Z,68.80
2023-04-08T08:37:42.815Z,70.00
2023-04-08T08:38:44.856Z,70.30
2023-04-08T08:39:47.936Z,70.40
2023-04-08T08:40:54.775Z,70.10
2023-04-08T08:41:57.839Z,69.10
2023-04-08T08:43:01.341Z,70.30
2023-04-08T08:44:06.530Z,70.80
2023-04-08T08:45:09.513Z,71.50
2023-04-08T08:46:17.940Z,71.00
2023-04-08T08:47:20.258Z,70.80
2023-04-08T08:48:23.361Z,71.00
2023-04-08T08:49:25.406Z,71.10
2023-04-08T08:50:29.223Z,70.50
2023-04-08T08:51:33.817Z,70.20
2023-04-08T08:52:36.089Z,69.00
2023-04-08T08:53:39.378Z,68.50
2023-04-08T08:54:41.985Z,67.40
2023-04-08T08:56:13.642Z,66.50
2023-04-08T08:57:17.557Z,66.50
2023-04-08T08:58:20.542Z,66.50
2023-04-08T08:59:23.566Z,65.80
2023-04-08T09:00:34.616Z,65.70
2023-04-08T09:01:41.463Z,64.50
2023-04-08T09:02:45.145Z,64.20
2023-04-08T09:03:47.400Z,64.40
2023-04-08T09:04:58.581Z,64.50
2023-04-08T09:06:01.938Z,65.30
2023-04-08T09:07:13.860Z,65.20
2023-04-08T09:08:26.885Z,64.80
2023-04-08T09:09:29.978Z,64.00
2023-04-08T09:10:32.122Z,64.30
2023-04-08T09:11:35.076Z,64.30
2023-04-08T09:12:54.928Z,63.50
2023-04-08T09:13:57.830Z,63.20
2023-04-08T09:15:08.992Z,62.60
2023-04-08T09:16:14.078Z,62.60
2023-04-08T09:17:33.379Z,62.30
2023-04-08T09:18:36.626Z,62.80
2023-04-08T09:19:39.793Z,62.60
2023-04-08T09:20:53.847Z,62.00
2023-04-08T09:22:07.740Z,62.30
2023-04-08T09:23:10.032Z,62.50
2023-04-08T09:24:29.922Z,62.60
2023-04-08T09:25:34.236Z,62.80
2023-04-08T09:26:37.609Z,63.30
2023-04-08T09:27:40.814Z,62.60
2023-04-08T09:28:44.575Z,62.10
2023-04-08T09:29:47.596Z,61.20
2023-04-08T09:30:49.922Z,60.80
2023-04-08T09:31:56.312Z,60.70
2023-04-08T09:33:01.408Z,59.90
2023-04-08T09:34:13.235Z,60.00
2023-04-08T09:35:17.162Z,60.40
2023-04-08T09:36:20.593Z,59.50
2023-04-08T09:37:23.630Z,59.90
2023-04-08T09:38:25.708Z,59.80
2023-04-08T09:39:28.715Z,59.90
2023-04-08T09:40:35.041Z,59.70
2023-04-08T09:41:39.179Z,59.80
2023-04-08T09:42:45.204Z,59.80
2023-04-08T09:43:50.283Z,59.70
2023-04-08T09:44:54.691Z,59.60
2023-04-08T09:45:58.861Z,59.60
2023-04-08T09:47:09.351Z,59.80
2023-04-08T09:48:18.312Z,59.80
2023-04-08T09:49:28.179Z,60.80
2023-04-08T09:50:32.656Z,61.40
2023-04-08T09:51:41.443Z,61.30
2023-04-08T09:52:50.235Z,61.50
2023-04-08T09:53:59.445Z,62.60
2023-04-08T09:55:04.870Z,63.80
2023-04-08T09:56:10.496Z,63.60
2023-04-08T09:57:18.862Z,63.80
2023-04-08T09:58:27.583Z,63.90
2023-04-08T09:59:33.910Z,64.80
2023-04-08T10:00:43.196Z,64.30
2023-04-08T10:01:51.015Z,65.20
2023-04-08T10:02:59.009Z,64.80
2023-04-08T10:04:08.469Z,65.70
2023-04-08T10:05:13.413Z,67.10
2023-04-08T10:06:16.992Z,67.30
2023-04-08T10:07:20.387Z,68.60
2023-04-08T10:08:23.530Z,69.00
2023-04-08T10:09:28.452Z,68.40
2023-04-08T10:10:31.474Z,69.60
2023-04-08T10:11:36.159Z,70.20
2023-04-08T10:12:38.762Z,70.50
2023-04-08T10:13:42.182Z,70.70
2023-04-08T10:15:23.218Z,72.30
2023-04-08T10:16:28.216Z,73.90
2023-04-08T10:17:36.532Z,77.70
2023-04-08T10:18:39.598Z,80.20
2023-04-08T10:19:44.599Z,83.70
2023-04-08T10:20:47.994Z,84.30
2023-04-08T10:21:50.989Z,90.20
2023-04-08T10:22:53.006Z,90.50
2023-04-08T10:23:59.633Z,92.80
2023-04-08T10:25:29.533Z,97.20
2023-04-08T10:26:36.998Z,99.90
2023-04-08T10:27:40.925Z,99.90
2023-04-08T10:28:43.975Z,99.90
2023-04-08T10:29:48.356Z,99.90
2023-04-08T10:30:51.317Z,99.90
2023-04-08T10:31:54.446Z,99.90
2023-04-08T10:32:57.538Z,99.90
2023-04-08T10:34:17.132Z,99.90
2023-04-08T10:35:30.264Z,99.90
2023-04-08T10:36:32.440Z,99.90
2023-04-08T10:37:35.484Z,99.90
2023-04-08T10:38:38.959Z,99.90
2023-04-08T10:39:49.607Z,99.90
2023-04-08T10:40:53.738Z,99.90
2023-04-08T10:41:56.342Z,99.90
2023-04-08T10:42:59.963Z,99.90
2023-04-08T10:44:04.745Z,99.90
2023-04-08T10:45:08.851Z,99.90
2023-04-08T10:46:12.702Z,99.90
2023-04-08T10:47:16.027Z,99.90
2023-04-08T10:48:20.754Z,99.90
2023-04-08T10:49:22.924Z,99.90
2023-04-08T10:50:27.327Z,99.90
2023-04-08T10:51:33.663Z,99.90
2023-04-08T10:52:37.046Z,99.90
2023-04-08T10:53:39.760Z,99.90
2023-04-08T10:54:49.737Z,99.90
2023-04-08T10:55:52.630Z,99.90
2023-04-08T10:56:55.774Z,99.90
2023-04-08T10:58:06.480Z,99.90
2023-04-08T10:59:09.484Z,99.90
2023-04-08T11:00:17.676Z,99.90
2023-04-08T11:01:21.328Z,99.90
2023-04-08T11:02:33.029Z,99.90
2023-04-08T11:03:37.217Z,99.90
2023-04-08T11:04:43.456Z,99.90
2023-04-08T11:05:47.856Z,99.90
2023-04-08T11:06:50.417Z,99.90
2023-04-08T11:07:56.786Z,99.90
2023-04-08T11:09:00.237Z,99.90
2023-04-08T11:10:05.102Z,99.90
2023-04-08T11:11:11.052Z,99.90
2023-04-08T11:12:18.055Z,99.90
2023-04-08T11:13:22.292Z,99.90
2023-04-08T11:14:26.712Z,99.90
2023-04-08T11:15:31.254Z,99.90
2023-04-08T11:16:35.748Z,98.80
2023-04-08T11:17:38.144Z,99.90
2023-04-08T11:18:41.990Z,98.70
2023-04-08T11:19:45.139Z,93.10
2023-04-08T11:20:51.047Z,87.00
2023-04-08T11:21:54.723Z,82.90
2023-04-08T11:22:57.454Z,81.90
2023-04-08T11:24:00.660Z,80.20
2023-04-08T11:25:03.713Z,71.10
2023-04-08T11:26:07.191Z,61.40
2023-04-08T11:27:10.560Z,60.40
2023-04-08T11:28:13.424Z,57.10
2023-04-08T11:29:16.821Z,54.50
2023-04-08T11:30:18.957Z,55.70
2023-04-08T11:31:24.819Z,54.10
2023-04-08T11:32:28.934Z,53.30
2023-04-08T11:33:31.813Z,53.40
2023-04-08T11:34:34.975Z,51.40
2023-04-08T11:35:42.007Z,51.60
2023-04-08T11:36:46.425Z,51.50
2023-04-08T11:37:49.814Z,49.50
2023-04-08T11:38:55.527Z,48.80
2023-04-08T11:39:57.633Z,48.80
2023-04-08T11:41:01.231Z,48.80
2023-04-08T11:42:04.275Z,46.20
2023-04-08T11:43:11.544Z,46.60
2023-04-08T11:44:13.710Z,47.70
2023-04-08T11:45:18.217Z,47.80
2023-04-08T11:46:21.388Z,47.90
2023-04-08T11:47:32.335Z,49.00
2023-04-08T11:48:34.863Z,48.70
2023-04-08T11:49:47.892Z,49.40
2023-04-08T11:51:04.704Z,49.00
2023-04-08T11:52:09.098Z,48.80
2023-04-08T11:53:20.420Z,50.00
2023-04-08T11:54:30.536Z,50.00
2023-04-08T11:55:33.411Z,50.50
2023-04-08T11:56:46.955Z,51.00
2023-04-08T11:57:49.185Z,51.50
2023-04-08T11:58:53.350Z,51.50
2023-04-08T11:59:55.386Z,51.50
2023-04-08T12:00:58.576Z,53.40
2023-04-08T12:02:02.047Z,53.60
2023-04-08T12:03:04.660Z,54.40
2023-04-08T12:04:10.397Z,54.90
2023-04-08T12:05:12.740Z,55.90
2023-04-08T12:06:16.031Z,57.10
2023-04-08T12:07:20.383Z,57.00
2023-04-08T12:08:22.813Z,56.70
2023-04-08T12:09:25.804Z,56.90
2023-04-08T12:10:27.850Z,57.30
2023-04-08T12:11:31.079Z,57.90
2023-04-08T12:12:33.310Z,58.00
2023-04-08T12:13:36.262Z,59.00
2023-04-08T12:14:39.280Z,57.80
2023-04-08T12:15:41.318Z,57.30
2023-04-08T12:16:44.336Z,58.50
2023-04-08T12:17:46.704Z,59.40
2023-04-08T12:18:50.273Z,59.40
2023-04-08T12:19:53.397Z,58.30
2023-04-08T12:20:56.408Z,58.00
2023-04-08T12:21:59.585Z,58.20
2023-04-08T12:23:02.974Z,58.60
2023-04-08T12:24:06.815Z,58.30
2023-04-08T12:25:09.510Z,59.40
2023-04-08T12:26:13.268Z,59.40
2023-04-08T12:27:16.403Z,58.00
2023-04-08T12:28:18.516Z,58.00
2023-04-08T12:29:21.668Z,57.70
2023-04-08T12:30:23.736Z,57.30
2023-04-08T12:31:27.786Z,57.50
2023-04-08T12:32:30.098Z,56.80
2023-04-08T12:33:33.367Z,57.50
2023-04-08T12:34:35.521Z,56.50
2023-04-08T12:35:38.714Z,55.40
2023-04-08T12:36:42.895Z,54.80
2023-04-08T12:37:45.666Z,55.40
2023-04-08T12:38:50.218Z,54.80
2023-04-08T12:39:52.486Z,55.70
2023-04-08T12:40:56.305Z,56.40
2023-04-08T12:41:59.496Z,55.40
2023-04-08T12:43:02.506Z,55.70
2023-04-08T12:44:05.729Z,54.30
2023-04-08T12:45:09.697Z,54.10
2023-04-08T12:46:11.953Z,53.90
2023-04-08T12:47:14.938Z,54.20
2023-04-08T12:48:17.149Z,54.00
2023-04-08T12:49:20.360Z,54.50
2023-04-08T12:50:23.601Z,53.90
2023-04-08T12:51:27.061Z,52.80
2023-04-08T12:52:29.325Z,52.40
2023-04-08T12:53:32.349Z,50.70
2023-04-08T12:54:35.786Z,49.30
2023-04-08T12:55:38.838Z,48.20
2023-04-08T12:56:43.206Z,48.10
2023-04-08T12:57:46.725Z,46.90
2023-04-08T12:58:50.166Z,46.90
2023-04-08T12:59:53.381Z,46.00
2023-04-08T13:00:55.624Z,46.00
2023-04-08T13:01:58.767Z,44.50
2023-04-08T13:03:01.202Z,43.90
2023-04-08T13:04:04.374Z,42.30
2023-04-08T13:05:06.740Z,42.30
2023-04-08T13:06:09.965Z,41.60
2023-04-08T13:07:12.013Z,41.20
2023-04-08T13:08:16.050Z,39.80
2023-04-08T13:09:18.549Z,39.60
2023-04-08T13:10:23.137Z,40.00
2023-04-08T13:11:26.562Z,40.80
2023-04-08T13:12:28.879Z,42.30
2023-04-08T13:13:32.155Z,42.20
2023-04-08T13:14:34.248Z,42.70
2023-04-08T13:15:38.051Z,45.10
2023-04-08T13:16:40.244Z,46.30
2023-04-08T13:17:43.427Z,47.90
2023-04-08T13:18:45.618Z,48.60
2023-04-08T13:19:50.014Z,49.20
2023-04-08T13:20:53.860Z,50.70
2023-04-08T13:21:57.027Z,51.00
2023-04-08T13:23:00.572Z,51.80
2023-04-08T13:24:03.610Z,52.60
2023-04-08T13:25:07.430Z,53.90
2023-04-08T13:26:11.800Z,54.40
2023-04-08T13:27:13.858Z,54.50
2023-04-08T13:28:16.840Z,55.00
2023-04-08T13:29:19.013Z,54.90
2023-04-08T13:30:22.198Z,55.60
2023-04-08T13:31:24.471Z,55.80
2023-04-08T13:32:27.739Z,56.10
2023-04-08T13:33:30.049Z,56.00
2023-04-08T13:34:33.055Z,56.00
2023-04-08T13:35:35.637Z,56.20
2023-04-08T13:36:39.045Z,56.30
2023-04-08T13:37:42.164Z,56.00
2023-04-08T13:38:46.197Z,56.20
2023-04-08T13:39:48.466Z,56.30
2023-04-08T13:40:51.544Z,56.40
2023-04-08T13:41:56.444Z,56.50
2023-04-08T13:42:59.544Z,56.50
2023-04-08T13:44:01.639Z,56.20
2023-04-08T13:45:05.336Z,56.30